sensor_id;sensor_type;location;lat;lon;timestamp;P1;durP1;ratioP1;P2;durP2;ratioP2
14748;SDS011;7466;53.574;9.976;2023-05-24T00:01:21;26.20;;;6.33;;
14748;SDS011;7466;53.574;9.976;2023-05-24T00:03:50;30.27;;;7.13;;
14748;SDS011;7466;53.574;9.976;2023-05-24T00:06:17;31.93;;;6.90;;
14748;SDS011;7466;53.574;9.976;2023-05-24T00:08:44;30.73;;;6.67;;
14748;SDS011;7466;53.574;9.976;2023-05-24T00:11:11;32.57;;;7.30;;
14748;SDS011;7466;53.574;9.976;2023-05-24T00:13:38;31.83;;;6.80;;
14748;SDS011;7466;53.574;9.976;2023-05-24T00:16:06;39.10;;;7.27;;
14748;SDS011;7466;53.574;9.976;2023-05-24T00:18:33;29.23;;;6.93;;
14748;SDS011;7466;53.574;9.976;2023-05-24T00:21:05;31.33;;;6.77;;
14748;SDS011;7466;53.574;9.976;2023-05-24T00:23:32;32.17;;;7.27;;
14748;SDS011;7466;53.574;9.976;2023-05-24T00:25:59;35.23;;;7.00;;
14748;SDS011;7466;53.574;9.976;2023-05-24T00:28:26;30.17;;;6.83;;
14748;SDS011;7466;53.574;9.976;2023-05-24T00:30:53;27.87;;;6.30;;
14748;SDS011;7466;53.574;9.976;2023-05-24T00:33:21;27.90;;;6.83;;
14748;SDS011;7466;53.574;9.976;2023-05-24T00:35:48;31.50;;;6.53;;
14748;SDS011;7466;53.574;9.976;2023-05-24T00:38:18;29.17;;;6.67;;
14748;SDS011;7466;53.574;9.976;2023-05-24T00:40:45;34.70;;;7.30;;
14748;SDS011;7466;53.574;9.976;2023-05-24T00:43:12;29.07;;;7.00;;
14748;SDS011;7466;53.574;9.976;2023-05-24T00:45:40;30.43;;;6.57;;
14748;SDS011;7466;53.574;9.976;2023-05-24T00:48:07;37.00;;;6.57;;
14748;SDS011;7466;53.574;9.976;2023-05-24T00:50:36;32.73;;;7.10;;
14748;SDS011;7466;53.574;9.976;2023-05-24T00:53:04;37.43;;;6.90;;
14748;SDS011;7466;53.574;9.976;2023-05-24T00:55:32;27.53;;;6.47;;
14748;SDS011;7466;53.574;9.976;2023-05-24T00:58:00;34.93;;;7.20;;
14748;SDS011;7466;53.574;9.976;2023-05-24T01:00:28;34.70;;;7.10;;
14748;SDS011;7466;53.574;9.976;2023-05-24T01:02:55;30.40;;;7.27;;
14748;SDS011;7466;53.574;9.976;2023-05-24T01:05:22;24.03;;;6.37;;
14748;SDS011;7466;53.574;9.976;2023-05-24T01:07:53;27.77;;;7.20;;
14748;SDS011;7466;53.574;9.976;2023-05-24T01:10:30;38.17;;;6.70;;
14748;SDS011;7466;53.574;9.976;2023-05-24T01:13:01;33.73;;;6.83;;
14748;SDS011;7466;53.574;9.976;2023-05-24T01:15:40;30.87;;;6.77;;
14748;SDS011;7466;53.574;9.976;2023-05-24T01:18:15;35.90;;;7.10;;
14748;SDS011;7466;53.574;9.976;2023-05-24T01:20:50;28.73;;;6.47;;
14748;SDS011;7466;53.574;9.976;2023-05-24T01:23:31;35.17;;;7.27;;
14748;SDS011;7466;53.574;9.976;2023-05-24T01:26:15;41.47;;;7.33;;
14748;SDS011;7466;53.574;9.976;2023-05-24T01:28:47;27.27;;;6.73;;
14748;SDS011;7466;53.574;9.976;2023-05-24T01:31:16;31.03;;;7.53;;
14748;SDS011;7466;53.574;9.976;2023-05-24T01:33:44;32.60;;;6.67;;
14748;SDS011;7466;53.574;9.976;2023-05-24T01:36:11;34.20;;;6.70;;
14748;SDS011;7466;53.574;9.976;2023-05-24T01:38:37;34.17;;;6.70;;
14748;SDS011;7466;53.574;9.976;2023-05-24T01:41:08;36.30;;;7.30;;
14748;SDS011;7466;53.574;9.976;2023-05-24T01:43:50;30.90;;;7.07;;
14748;SDS011;7466;53.574;9.976;2023-05-24T01:46:21;35.83;;;6.50;;
14748;SDS011;7466;53.574;9.976;2023-05-24T01:48:56;28.73;;;6.70;;
14748;SDS011;7466;53.574;9.976;2023-05-24T01:51:33;34.97;;;7.07;;
14748;SDS011;7466;53.574;9.976;2023-05-24T01:54:06;33.67;;;7.00;;
14748;SDS011;7466;53.574;9.976;2023-05-24T01:56:34;34.73;;;7.50;;
14748;SDS011;7466;53.574;9.976;2023-05-24T01:59:03;32.23;;;6.77;;
14748;SDS011;7466;53.574;9.976;2023-05-24T02:01:32;35.37;;;7.63;;
14748;SDS011;7466;53.574;9.976;2023-05-24T02:04:00;30.67;;;6.93;;
14748;SDS011;7466;53.574;9.976;2023-05-24T02:06:27;40.40;;;7.97;;
14748;SDS011;7466;53.574;9.976;2023-05-24T02:08:54;32.07;;;6.90;;
14748;SDS011;7466;53.574;9.976;2023-05-24T02:11:21;24.03;;;6.83;;
14748;SDS011;7466;53.574;9.976;2023-05-24T02:13:47;37.00;;;6.70;;
14748;SDS011;7466;53.574;9.976;2023-05-24T02:16:16;31.27;;;7.27;;
14748;SDS011;7466;53.574;9.976;2023-05-24T02:18:43;39.57;;;8.20;;
14748;SDS011;7466;53.574;9.976;2023-05-24T02:21:10;31.27;;;7.43;;
14748;SDS011;7466;53.574;9.976;2023-05-24T02:23:37;40.17;;;7.10;;
14748;SDS011;7466;53.574;9.976;2023-05-24T02:26:04;32.40;;;7.37;;
14748;SDS011;7466;53.574;9.976;2023-05-24T02:28:31;31.23;;;6.97;;
14748;SDS011;7466;53.574;9.976;2023-05-24T02:30:58;29.53;;;6.80;;
14748;SDS011;7466;53.574;9.976;2023-05-24T02:33:26;35.87;;;7.30;;
14748;SDS011;7466;53.574;9.976;2023-05-24T02:35:54;30.50;;;7.13;;
14748;SDS011;7466;53.574;9.976;2023-05-24T02:38:21;37.77;;;7.30;;
14748;SDS011;7466;53.574;9.976;2023-05-24T02:40:48;37.73;;;7.33;;
14748;SDS011;7466;53.574;9.976;2023-05-24T02:43:15;30.50;;;6.90;;
14748;SDS011;7466;53.574;9.976;2023-05-24T02:45:41;28.37;;;6.17;;
14748;SDS011;7466;53.574;9.976;2023-05-24T02:48:08;33.13;;;7.30;;
14748;SDS011;7466;53.574;9.976;2023-05-24T02:50:36;28.40;;;6.97;;
14748;SDS011;7466;53.574;9.976;2023-05-24T02:53:03;32.33;;;7.57;;
14748;SDS011;7466;53.574;9.976;2023-05-24T02:55:30;29.90;;;6.67;;
14748;SDS011;7466;53.574;9.976;2023-05-24T02:57:57;29.70;;;6.73;;
14748;SDS011;7466;53.574;9.976;2023-05-24T03:00:25;37.17;;;7.97;;
14748;SDS011;7466;53.574;9.976;2023-05-24T03:02:51;30.73;;;7.37;;
14748;SDS011;7466;53.574;9.976;2023-05-24T03:05:19;30.80;;;7.00;;
14748;SDS011;7466;53.574;9.976;2023-05-24T03:07:49;31.33;;;7.40;;
14748;SDS011;7466;53.574;9.976;2023-05-24T03:10:16;27.77;;;6.77;;
14748;SDS011;7466;53.574;9.976;2023-05-24T03:12:42;24.27;;;6.60;;
14748;SDS011;7466;53.574;9.976;2023-05-24T03:15:09;26.63;;;6.77;;
14748;SDS011;7466;53.574;9.976;2023-05-24T03:17:36;34.90;;;7.67;;
14748;SDS011;7466;53.574;9.976;2023-05-24T03:20:04;33.57;;;6.90;;
14748;SDS011;7466;53.574;9.976;2023-05-24T03:22:32;32.93;;;7.10;;
14748;SDS011;7466;53.574;9.976;2023-05-24T03:25:00;30.90;;;7.00;;
14748;SDS011;7466;53.574;9.976;2023-05-24T03:27:27;37.63;;;7.17;;
14748;SDS011;7466;53.574;9.976;2023-05-24T03:29:54;33.17;;;7.53;;
14748;SDS011;7466;53.574;9.976;2023-05-24T03:32:21;35.33;;;7.47;;
14748;SDS011;7466;53.574;9.976;2023-05-24T03:34:47;29.23;;;7.37;;
14748;SDS011;7466;53.574;9.976;2023-05-24T03:37:14;26.67;;;7.37;;
14748;SDS011;7466;53.574;9.976;2023-05-24T03:39:41;27.63;;;7.20;;
14748;SDS011;7466;53.574;9.976;2023-05-24T03:42:09;34.07;;;7.10;;
14748;SDS011;7466;53.574;9.976;2023-05-24T03:44:37;32.93;;;6.67;;
14748;SDS011;7466;53.574;9.976;2023-05-24T03:47:06;31.20;;;7.10;;
14748;SDS011;7466;53.574;9.976;2023-05-24T03:49:33;32.57;;;6.97;;
14748;SDS011;7466;53.574;9.976;2023-05-24T03:52:00;34.33;;;7.20;;
14748;SDS011;7466;53.574;9.976;2023-05-24T03:54:27;33.63;;;7.90;;
14748;SDS011;7466;53.574;9.976;2023-05-24T03:56:54;35.47;;;7.60;;
14748;SDS011;7466;53.574;9.976;2023-05-24T03:59:22;32.73;;;7.23;;
14748;SDS011;7466;53.574;9.976;2023-05-24T04:01:48;29.07;;;7.20;;
14748;SDS011;7466;53.574;9.976;2023-05-24T04:04:15;35.30;;;7.13;;
14748;SDS011;7466;53.574;9.976;2023-05-24T04:06:42;30.80;;;7.83;;
14748;SDS011;7466;53.574;9.976;2023-05-24T04:09:09;31.87;;;6.67;;
14748;SDS011;7466;53.574;9.976;2023-05-24T04:11:36;39.37;;;7.33;;
14748;SDS011;7466;53.574;9.976;2023-05-24T04:14:03;27.10;;;7.10;;
14748;SDS011;7466;53.574;9.976;2023-05-24T04:16:31;30.20;;;7.17;;
14748;SDS011;7466;53.574;9.976;2023-05-24T04:18:58;33.30;;;7.77;;
14748;SDS011;7466;53.574;9.976;2023-05-24T04:21:26;38.03;;;7.83;;
14748;SDS011;7466;53.574;9.976;2023-05-24T04:23:54;37.50;;;7.53;;
14748;SDS011;7466;53.574;9.976;2023-05-24T04:26:22;36.63;;;8.07;;
14748;SDS011;7466;53.574;9.976;2023-05-24T04:28:48;36.83;;;7.77;;
14748;SDS011;7466;53.574;9.976;2023-05-24T04:31:15;35.70;;;8.47;;
14748;SDS011;7466;53.574;9.976;2023-05-24T04:33:43;38.13;;;8.47;;
14748;SDS011;7466;53.574;9.976;2023-05-24T04:36:11;36.73;;;7.87;;
14748;SDS011;7466;53.574;9.976;2023-05-24T04:38:39;28.07;;;7.93;;
14748;SDS011;7466;53.574;9.976;2023-05-24T04:41:13;31.73;;;7.90;;
14748;SDS011;7466;53.574;9.976;2023-05-24T04:43:40;30.13;;;7.90;;
14748;SDS011;7466;53.574;9.976;2023-05-24T04:46:06;36.13;;;8.57;;
14748;SDS011;7466;53.574;9.976;2023-05-24T04:48:33;32.27;;;8.50;;
14748;SDS011;7466;53.574;9.976;2023-05-24T04:51:01;37.63;;;9.33;;
14748;SDS011;7466;53.574;9.976;2023-05-24T04:53:28;35.27;;;8.50;;
14748;SDS011;7466;53.574;9.976;2023-05-24T04:55:56;28.03;;;8.43;;
14748;SDS011;7466;53.574;9.976;2023-05-24T04:58:23;37.53;;;8.37;;
14748;SDS011;7466;53.574;9.976;2023-05-24T05:00:50;37.03;;;8.80;;
14748;SDS011;7466;53.574;9.976;2023-05-24T05:03:17;32.63;;;8.80;;
14748;SDS011;7466;53.574;9.976;2023-05-24T05:05:44;31.40;;;8.40;;
14748;SDS011;7466;53.574;9.976;2023-05-24T05:08:13;34.73;;;8.70;;
14748;SDS011;7466;53.574;9.976;2023-05-24T05:10:45;31.97;;;8.53;;
14748;SDS011;7466;53.574;9.976;2023-05-24T05:13:12;28.57;;;8.57;;
14748;SDS011;7466;53.574;9.976;2023-05-24T05:15:39;32.53;;;9.20;;
14748;SDS011;7466;53.574;9.976;2023-05-24T05:18:12;28.60;;;9.13;;
14748;SDS011;7466;53.574;9.976;2023-05-24T05:20:41;29.87;;;9.10;;
14748;SDS011;7466;53.574;9.976;2023-05-24T05:23:08;25.40;;;8.73;;
14748;SDS011;7466;53.574;9.976;2023-05-24T05:25:46;30.57;;;8.63;;
14748;SDS011;7466;53.574;9.976;2023-05-24T05:28:13;37.43;;;8.93;;
14748;SDS011;7466;53.574;9.976;2023-05-24T05:30:40;38.47;;;10.13;;
14748;SDS011;7466;53.574;9.976;2023-05-24T05:33:07;30.93;;;8.80;;
14748;SDS011;7466;53.574;9.976;2023-05-24T05:35:33;32.53;;;9.50;;
14748;SDS011;7466;53.574;9.976;2023-05-24T05:38:10;31.57;;;8.60;;
14748;SDS011;7466;53.574;9.976;2023-05-24T05:40:36;37.47;;;10.07;;
14748;SDS011;7466;53.574;9.976;2023-05-24T05:43:04;34.07;;;9.57;;
14748;SDS011;7466;53.574;9.976;2023-05-24T05:45:32;34.13;;;10.17;;
14748;SDS011;7466;53.574;9.976;2023-05-24T05:47:59;40.53;;;9.10;;
14748;SDS011;7466;53.574;9.976;2023-05-24T05:50:26;39.97;;;8.87;;
14748;SDS011;7466;53.574;9.976;2023-05-24T05:52:53;35.73;;;9.50;;
14748;SDS011;7466;53.574;9.976;2023-05-24T05:55:20;34.67;;;9.40;;
14748;SDS011;7466;53.574;9.976;2023-05-24T05:57:47;42.03;;;9.67;;
14748;SDS011;7466;53.574;9.976;2023-05-24T06:00:16;34.03;;;9.67;;
14748;SDS011;7466;53.574;9.976;2023-05-24T06:02:44;35.37;;;9.50;;
14748;SDS011;7466;53.574;9.976;2023-05-24T06:05:10;41.97;;;10.37;;
14748;SDS011;7466;53.574;9.976;2023-05-24T06:07:37;40.17;;;9.57;;
14748;SDS011;7466;53.574;9.976;2023-05-24T06:10:05;34.43;;;9.47;;
14748;SDS011;7466;53.574;9.976;2023-05-24T06:12:32;32.70;;;9.40;;
14748;SDS011;7466;53.574;9.976;2023-05-24T06:14:59;47.67;;;11.07;;
14748;SDS011;7466;53.574;9.976;2023-05-24T06:17:27;45.07;;;10.63;;
14748;SDS011;7466;53.574;9.976;2023-05-24T06:19:54;37.80;;;9.80;;
14748;SDS011;7466;53.574;9.976;2023-05-24T06:22:21;41.17;;;10.13;;
14748;SDS011;7466;53.574;9.976;2023-05-24T06:24:48;38.73;;;9.67;;
14748;SDS011;7466;53.574;9.976;2023-05-24T06:27:16;37.63;;;9.83;;
14748;SDS011;7466;53.574;9.976;2023-05-24T06:29:43;33.40;;;9.10;;
14748;SDS011;7466;53.574;9.976;2023-05-24T06:32:10;32.17;;;8.97;;
14748;SDS011;7466;53.574;9.976;2023-05-24T06:34:38;47.53;;;10.20;;
14748;SDS011;7466;53.574;9.976;2023-05-24T06:37:06;40.23;;;10.20;;
14748;SDS011;7466;53.574;9.976;2023-05-24T06:39:34;37.40;;;9.70;;
14748;SDS011;7466;53.574;9.976;2023-05-24T06:42:01;40.23;;;9.87;;
14748;SDS011;7466;53.574;9.976;2023-05-24T06:44:28;39.13;;;10.07;;
14748;SDS011;7466;53.574;9.976;2023-05-24T06:46:58;38.27;;;9.33;;
14748;SDS011;7466;53.574;9.976;2023-05-24T06:49:26;43.30;;;9.33;;
14748;SDS011;7466;53.574;9.976;2023-05-24T06:51:54;34.17;;;9.17;;
14748;SDS011;7466;53.574;9.976;2023-05-24T06:54:21;31.00;;;9.07;;
14748;SDS011;7466;53.574;9.976;2023-05-24T06:56:48;41.50;;;9.17;;
14748;SDS011;7466;53.574;9.976;2023-05-24T06:59:15;46.00;;;9.00;;
14748;SDS011;7466;53.574;9.976;2023-05-24T07:01:42;40.53;;;9.03;;
14748;SDS011;7466;53.574;9.976;2023-05-24T07:04:09;37.83;;;9.07;;
14748;SDS011;7466;53.574;9.976;2023-05-24T07:06:36;41.60;;;10.47;;
14748;SDS011;7466;53.574;9.976;2023-05-24T07:09:04;39.60;;;9.47;;
14748;SDS011;7466;53.574;9.976;2023-05-24T07:11:31;39.73;;;8.97;;
14748;SDS011;7466;53.574;9.976;2023-05-24T07:13:58;45.27;;;8.87;;
14748;SDS011;7466;53.574;9.976;2023-05-24T07:16:25;35.33;;;8.87;;
14748;SDS011;7466;53.574;9.976;2023-05-24T07:18:53;41.10;;;8.87;;
14748;SDS011;7466;53.574;9.976;2023-05-24T07:21:22;45.13;;;9.47;;
14748;SDS011;7466;53.574;9.976;2023-05-24T07:23:49;36.33;;;9.17;;
14748;SDS011;7466;53.574;9.976;2023-05-24T07:26:18;36.53;;;8.67;;
14748;SDS011;7466;53.574;9.976;2023-05-24T07:28:44;37.07;;;9.17;;
14748;SDS011;7466;53.574;9.976;2023-05-24T07:31:11;39.30;;;8.60;;
14748;SDS011;7466;53.574;9.976;2023-05-24T07:33:38;47.73;;;9.27;;
14748;SDS011;7466;53.574;9.976;2023-05-24T07:36:06;35.67;;;8.63;;
14748;SDS011;7466;53.574;9.976;2023-05-24T07:38:33;41.50;;;8.67;;
14748;SDS011;7466;53.574;9.976;2023-05-24T07:41:01;37.67;;;8.57;;
14748;SDS011;7466;53.574;9.976;2023-05-24T07:43:30;39.43;;;8.10;;
14748;SDS011;7466;53.574;9.976;2023-05-24T07:45:56;36.63;;;8.27;;
14748;SDS011;7466;53.574;9.976;2023-05-24T07:48:23;38.73;;;8.40;;
14748;SDS011;7466;53.574;9.976;2023-05-24T07:50:50;40.37;;;8.87;;
14748;SDS011;7466;53.574;9.976;2023-05-24T07:53:18;42.00;;;8.67;;
14748;SDS011;7466;53.574;9.976;2023-05-24T07:55:46;35.13;;;8.43;;
14748;SDS011;7466;53.574;9.976;2023-05-24T07:58:13;37.47;;;8.53;;
14748;SDS011;7466;53.574;9.976;2023-05-24T08:00:41;40.13;;;9.47;;
14748;SDS011;7466;53.574;9.976;2023-05-24T08:03:09;37.97;;;9.00;;
14748;SDS011;7466;53.574;9.976;2023-05-24T08:05:38;40.87;;;8.83;;
14748;SDS011;7466;53.574;9.976;2023-05-24T08:08:05;43.30;;;8.67;;
14748;SDS011;7466;53.574;9.976;2023-05-24T08:10:32;30.47;;;8.33;;
14748;SDS011;7466;53.574;9.976;2023-05-24T08:12:59;36.37;;;8.00;;
14748;SDS011;7466;53.574;9.976;2023-05-24T08:15:26;46.90;;;8.70;;
14748;SDS011;7466;53.574;9.976;2023-05-24T08:17:54;31.27;;;8.00;;
14748;SDS011;7466;53.574;9.976;2023-05-24T08:20:21;33.37;;;8.90;;
14748;SDS011;7466;53.574;9.976;2023-05-24T08:22:48;34.10;;;8.33;;
14748;SDS011;7466;53.574;9.976;2023-05-24T08:25:14;35.27;;;7.87;;
14748;SDS011;7466;53.574;9.976;2023-05-24T08:27:41;34.53;;;8.10;;
14748;SDS011;7466;53.574;9.976;2023-05-24T08:30:08;28.93;;;7.30;;
14748;SDS011;7466;53.574;9.976;2023-05-24T08:32:37;23.80;;;7.57;;
14748;SDS011;7466;53.574;9.976;2023-05-24T08:35:06;27.67;;;7.00;;
14748;SDS011;7466;53.574;9.976;2023-05-24T08:37:33;32.30;;;7.77;;
14748;SDS011;7466;53.574;9.976;2023-05-24T08:40:00;33.70;;;7.70;;
14748;SDS011;7466;53.574;9.976;2023-05-24T08:42:28;23.97;;;7.13;;
14748;SDS011;7466;53.574;9.976;2023-05-24T08:44:57;27.40;;;7.17;;
14748;SDS011;7466;53.574;9.976;2023-05-24T08:47:33;32.03;;;7.67;;
14748;SDS011;7466;53.574;9.976;2023-05-24T08:50:02;33.53;;;7.67;;
14748;SDS011;7466;53.574;9.976;2023-05-24T08:52:31;32.10;;;7.77;;
14748;SDS011;7466;53.574;9.976;2023-05-24T08:54:59;21.00;;;6.77;;
14748;SDS011;7466;53.574;9.976;2023-05-24T08:57:29;29.57;;;7.27;;
14748;SDS011;7466;53.574;9.976;2023-05-24T08:59:58;25.83;;;7.43;;
14748;SDS011;7466;53.574;9.976;2023-05-24T09:02:25;27.30;;;7.57;;
14748;SDS011;7466;53.574;9.976;2023-05-24T09:04:53;25.47;;;6.93;;
14748;SDS011;7466;53.574;9.976;2023-05-24T09:07:21;25.27;;;7.50;;
14748;SDS011;7466;53.574;9.976;2023-05-24T09:09:51;24.57;;;6.77;;
14748;SDS011;7466;53.574;9.976;2023-05-24T09:12:22;19.83;;;5.83;;
14748;SDS011;7466;53.574;9.976;2023-05-24T09:14:51;21.53;;;5.67;;
14748;SDS011;7466;53.574;9.976;2023-05-24T09:17:18;20.13;;;6.43;;
14748;SDS011;7466;53.574;9.976;2023-05-24T09:19:48;14.90;;;5.57;;
14748;SDS011;7466;53.574;9.976;2023-05-24T09:22:17;17.70;;;5.67;;
14748;SDS011;7466;53.574;9.976;2023-05-24T09:24:51;17.03;;;5.53;;
14748;SDS011;7466;53.574;9.976;2023-05-24T09:27:22;19.73;;;6.23;;
14748;SDS011;7466;53.574;9.976;2023-05-24T09:29:49;17.37;;;5.63;;
14748;SDS011;7466;53.574;9.976;2023-05-24T09:32:17;17.67;;;5.37;;
14748;SDS011;7466;53.574;9.976;2023-05-24T09:34:47;14.93;;;4.83;;
14748;SDS011;7466;53.574;9.976;2023-05-24T09:37:15;12.77;;;4.67;;
14748;SDS011;7466;53.574;9.976;2023-05-24T09:39:43;19.03;;;5.30;;
14748;SDS011;7466;53.574;9.976;2023-05-24T09:42:14;14.93;;;5.30;;
14748;SDS011;7466;53.574;9.976;2023-05-24T09:44:44;16.97;;;5.27;;
14748;SDS011;7466;53.574;9.976;2023-05-24T09:47:11;18.37;;;5.40;;
14748;SDS011;7466;53.574;9.976;2023-05-24T09:49:40;21.73;;;5.40;;
14748;SDS011;7466;53.574;9.976;2023-05-24T09:52:07;15.90;;;5.13;;
14748;SDS011;7466;53.574;9.976;2023-05-24T09:54:38;16.50;;;5.00;;
14748;SDS011;7466;53.574;9.976;2023-05-24T09:57:06;17.07;;;6.00;;
14748;SDS011;7466;53.574;9.976;2023-05-24T09:59:38;18.03;;;5.07;;
14748;SDS011;7466;53.574;9.976;2023-05-24T10:02:06;14.77;;;5.70;;
14748;SDS011;7466;53.574;9.976;2023-05-24T10:04:35;18.67;;;5.73;;
14748;SDS011;7466;53.574;9.976;2023-05-24T10:07:02;16.97;;;5.37;;
14748;SDS011;7466;53.574;9.976;2023-05-24T10:09:30;17.27;;;4.40;;
14748;SDS011;7466;53.574;9.976;2023-05-24T10:12:00;14.90;;;5.17;;
14748;SDS011;7466;53.574;9.976;2023-05-24T10:14:29;12.77;;;4.67;;
14748;SDS011;7466;53.574;9.976;2023-05-24T10:16:59;19.70;;;5.53;;
14748;SDS011;7466;53.574;9.976;2023-05-24T10:19:26;15.40;;;5.30;;
14748;SDS011;7466;53.574;9.976;2023-05-24T10:21:52;14.30;;;5.43;;
14748;SDS011;7466;53.574;9.976;2023-05-24T10:24:23;15.07;;;5.13;;
14748;SDS011;7466;53.574;9.976;2023-05-24T10:26:52;14.80;;;4.83;;
14748;SDS011;7466;53.574;9.976;2023-05-24T10:29:23;14.33;;;4.80;;
14748;SDS011;7466;53.574;9.976;2023-05-24T10:31:57;12.73;;;4.27;;
14748;SDS011;7466;53.574;9.976;2023-05-24T10:34:26;17.83;;;5.30;;
14748;SDS011;7466;53.574;9.976;2023-05-24T10:36:54;14.60;;;4.90;;
14748;SDS011;7466;53.574;9.976;2023-05-24T10:39:23;14.07;;;4.90;;
14748;SDS011;7466;53.574;9.976;2023-05-24T10:41:50;11.77;;;5.13;;
14748;SDS011;7466;53.574;9.976;2023-05-24T10:44:20;15.17;;;5.10;;
14748;SDS011;7466;53.574;9.976;2023-05-24T10:49:36;13.87;;;5.10;;
14748;SDS011;7466;53.574;9.976;2023-05-24T10:52:07;14.13;;;4.53;;
14748;SDS011;7466;53.574;9.976;2023-05-24T10:54:35;12.53;;;5.00;;
14748;SDS011;7466;53.574;9.976;2023-05-24T10:57:02;14.00;;;4.70;;
14748;SDS011;7466;53.574;9.976;2023-05-24T10:59:37;14.40;;;4.87;;
14748;SDS011;7466;53.574;9.976;2023-05-24T11:02:05;12.03;;;5.10;;
14748;SDS011;7466;53.574;9.976;2023-05-24T11:04:39;13.63;;;5.03;;
14748;SDS011;7466;53.574;9.976;2023-05-24T11:07:08;11.27;;;4.33;;
14748;SDS011;7466;53.574;9.976;2023-05-24T11:09:36;11.10;;;4.37;;
14748;SDS011;7466;53.574;9.976;2023-05-24T11:12:10;11.60;;;4.20;;
14748;SDS011;7466;53.574;9.976;2023-05-24T11:14:40;11.43;;;4.53;;
14748;SDS011;7466;53.574;9.976;2023-05-24T11:17:13;10.77;;;4.47;;
14748;SDS011;7466;53.574;9.976;2023-05-24T11:19:45;11.63;;;4.00;;
14748;SDS011;7466;53.574;9.976;2023-05-24T11:22:15;8.50;;;3.70;;
14748;SDS011;7466;53.574;9.976;2023-05-24T11:24:42;10.23;;;4.27;;
14748;SDS011;7466;53.574;9.976;2023-05-24T11:27:11;8.37;;;3.47;;
14748;SDS011;7466;53.574;9.976;2023-05-24T11:29:39;7.77;;;3.97;;
14748;SDS011;7466;53.574;9.976;2023-05-24T11:32:06;9.57;;;4.00;;
14748;SDS011;7466;53.574;9.976;2023-05-24T11:34:33;8.63;;;3.97;;
14748;SDS011;7466;53.574;9.976;2023-05-24T11:37:01;11.10;;;4.43;;
14748;SDS011;7466;53.574;9.976;2023-05-24T11:39:30;8.07;;;4.27;;
14748;SDS011;7466;53.574;9.976;2023-05-24T11:41:57;10.37;;;4.90;;
14748;SDS011;7466;53.574;9.976;2023-05-24T11:44:26;12.43;;;4.47;;
14748;SDS011;7466;53.574;9.976;2023-05-24T11:46:57;9.77;;;4.73;;
14748;SDS011;7466;53.574;9.976;2023-05-24T11:49:24;13.00;;;5.33;;
14748;SDS011;7466;53.574;9.976;2023-05-24T11:51:52;11.50;;;4.83;;
14748;SDS011;7466;53.574;9.976;2023-05-24T11:54:21;17.40;;;5.20;;
14748;SDS011;7466;53.574;9.976;2023-05-24T11:56:48;14.73;;;5.57;;
14748;SDS011;7466;53.574;9.976;2023-05-24T11:59:17;17.00;;;5.00;;
14748;SDS011;7466;53.574;9.976;2023-05-24T12:01:49;15.13;;;5.30;;
14748;SDS011;7466;53.574;9.976;2023-05-24T12:04:21;19.70;;;5.70;;
14748;SDS011;7466;53.574;9.976;2023-05-24T12:06:48;12.23;;;5.00;;
14748;SDS011;7466;53.574;9.976;2023-05-24T12:09:15;10.53;;;4.70;;
14748;SDS011;7466;53.574;9.976;2023-05-24T12:11:45;14.87;;;4.90;;
14748;SDS011;7466;53.574;9.976;2023-05-24T12:14:14;15.13;;;5.30;;
14748;SDS011;7466;53.574;9.976;2023-05-24T12:16:44;17.30;;;5.00;;
14748;SDS011;7466;53.574;9.976;2023-05-24T12:19:12;10.40;;;4.60;;
14748;SDS011;7466;53.574;9.976;2023-05-24T12:21:41;16.63;;;5.60;;
14748;SDS011;7466;53.574;9.976;2023-05-24T12:24:08;11.63;;;4.70;;
14748;SDS011;7466;53.574;9.976;2023-05-24T12:26:39;14.40;;;5.20;;
14748;SDS011;7466;53.574;9.976;2023-05-24T12:29:09;12.77;;;4.67;;
14748;SDS011;7466;53.574;9.976;2023-05-24T12:31:38;17.87;;;5.10;;
14748;SDS011;7466;53.574;9.976;2023-05-24T12:34:06;13.03;;;5.40;;
14748;SDS011;7466;53.574;9.976;2023-05-24T12:36:36;12.83;;;5.13;;
14748;SDS011;7466;53.574;9.976;2023-05-24T12:39:04;17.50;;;5.27;;
14748;SDS011;7466;53.574;9.976;2023-05-24T12:41:44;14.47;;;5.10;;
14748;SDS011;7466;53.574;9.976;2023-05-24T12:44:16;11.60;;;4.70;;
14748;SDS011;7466;53.574;9.976;2023-05-24T12:46:46;15.33;;;5.60;;
14748;SDS011;7466;53.574;9.976;2023-05-24T12:49:13;15.40;;;5.83;;
14748;SDS011;7466;53.574;9.976;2023-05-24T12:51:40;17.00;;;5.40;;
14748;SDS011;7466;53.574;9.976;2023-05-24T12:54:07;14.00;;;5.90;;
14748;SDS011;7466;53.574;9.976;2023-05-24T12:56:33;16.83;;;5.93;;
14748;SDS011;7466;53.574;9.976;2023-05-24T12:59:00;14.57;;;5.53;;
14748;SDS011;7466;53.574;9.976;2023-05-24T13:01:28;15.73;;;6.00;;
14748;SDS011;7466;53.574;9.976;2023-05-24T13:03:55;10.93;;;5.40;;
14748;SDS011;7466;53.574;9.976;2023-05-24T13:06:23;20.70;;;5.53;;
14748;SDS011;7466;53.574;9.976;2023-05-24T13:08:50;19.20;;;5.43;;
14748;SDS011;7466;53.574;9.976;2023-05-24T13:11:17;13.57;;;5.50;;
14748;SDS011;7466;53.574;9.976;2023-05-24T13:13:44;17.50;;;5.77;;
14748;SDS011;7466;53.574;9.976;2023-05-24T13:16:11;12.67;;;5.50;;
14748;SDS011;7466;53.574;9.976;2023-05-24T13:18:40;9.83;;;5.03;;
14748;SDS011;7466;53.574;9.976;2023-05-24T13:21:06;10.17;;;5.03;;
14748;SDS011;7466;53.574;9.976;2023-05-24T13:23:34;13.83;;;5.60;;
14748;SDS011;7466;53.574;9.976;2023-05-24T13:26:02;13.03;;;5.20;;
14748;SDS011;7466;53.574;9.976;2023-05-24T13:28:31;10.73;;;4.80;;
14748;SDS011;7466;53.574;9.976;2023-05-24T13:30:59;13.33;;;5.73;;
14748;SDS011;7466;53.574;9.976;2023-05-24T13:33:26;11.07;;;4.47;;
14748;SDS011;7466;53.574;9.976;2023-05-24T13:35:54;11.10;;;5.23;;
14748;SDS011;7466;53.574;9.976;2023-05-24T13:38:26;10.13;;;5.10;;
14748;SDS011;7466;53.574;9.976;2023-05-24T13:40:53;8.17;;;4.57;;
14748;SDS011;7466;53.574;9.976;2023-05-24T13:43:21;10.63;;;4.80;;
14748;SDS011;7466;53.574;9.976;2023-05-24T13:45:48;8.17;;;4.83;;
14748;SDS011;7466;53.574;9.976;2023-05-24T13:48:15;11.03;;;4.90;;
14748;SDS011;7466;53.574;9.976;2023-05-24T13:50:42;13.10;;;4.97;;
14748;SDS011;7466;53.574;9.976;2023-05-24T13:53:10;11.20;;;4.90;;
14748;SDS011;7466;53.574;9.976;2023-05-24T13:55:38;10.37;;;4.93;;
14748;SDS011;7466;53.574;9.976;2023-05-24T13:58:04;9.67;;;5.00;;
14748;SDS011;7466;53.574;9.976;2023-05-24T14:00:31;7.83;;;4.50;;
14748;SDS011;7466;53.574;9.976;2023-05-24T14:02:59;9.20;;;5.00;;
14748;SDS011;7466;53.574;9.976;2023-05-24T14:05:27;7.27;;;4.20;;
14748;SDS011;7466;53.574;9.976;2023-05-24T14:07:55;8.63;;;4.63;;
14748;SDS011;7466;53.574;9.976;2023-05-24T14:10:25;11.73;;;5.60;;
14748;SDS011;7466;53.574;9.976;2023-05-24T14:12:52;13.53;;;5.63;;
14748;SDS011;7466;53.574;9.976;2023-05-24T14:15:19;14.20;;;5.40;;
14748;SDS011;7466;53.574;9.976;2023-05-24T14:17:46;16.03;;;6.43;;
14748;SDS011;7466;53.574;9.976;2023-05-24T14:20:12;15.93;;;6.47;;
14748;SDS011;7466;53.574;9.976;2023-05-24T14:22:39;15.17;;;5.80;;
14748;SDS011;7466;53.574;9.976;2023-05-24T14:25:06;19.97;;;6.63;;
14748;SDS011;7466;53.574;9.976;2023-05-24T14:27:36;16.97;;;6.83;;
14748;SDS011;7466;53.574;9.976;2023-05-24T14:30:04;16.03;;;6.80;;
14748;SDS011;7466;53.574;9.976;2023-05-24T14:32:32;17.03;;;6.80;;
14748;SDS011;7466;53.574;9.976;2023-05-24T14:34:59;17.40;;;6.10;;
14748;SDS011;7466;53.574;9.976;2023-05-24T14:37:26;14.07;;;6.33;;
14748;SDS011;7466;53.574;9.976;2023-05-24T14:42:22;17.70;;;6.97;;
14748;SDS011;7466;53.574;9.976;2023-05-24T14:44:50;20.87;;;6.93;;
14748;SDS011;7466;53.574;9.976;2023-05-24T14:47:17;16.77;;;6.53;;
14748;SDS011;7466;53.574;9.976;2023-05-24T14:49:44;16.63;;;6.73;;
14748;SDS011;7466;53.574;9.976;2023-05-24T14:52:11;13.40;;;6.13;;
14748;SDS011;7466;53.574;9.976;2023-05-24T14:54:38;14.25;;;6.20;;
14748;SDS011;7466;53.574;9.976;2023-05-24T14:57:05;17.95;;;6.40;;
14748;SDS011;7466;53.574;9.976;2023-05-24T14:59:32;17.67;;;6.40;;